KERY

Details ICAO KERY (ERY)
Name LUCE CO
Region United States
Timezone America/Detroit (UTC-5.0)
Plans Departing 2
Arriving 0
Stats Elevation 869 ft / 265 m (AMSL)
Location 46.310587° -85.456707°
Runways 2
Magnetic Variation 6.574° W
Sunrise 2017-12-12 13:17:23 UTC / 2017-12-12 08:17:23 Local
Sunset 2017-12-12 21:56:49 UTC / 2017-12-12 16:56:49 Local
Advertisement - Login to hide

Runways

ID Width Length Bearing (true) Bearing (mag) Surface Threshold Offset Overrun Length
04 150 ft / 46 m 2,917 ft / 889 m 33.51° 40.08° Grass 969 ft / 295 m 0 ft / 0 m
11 75 ft / 23 m 4,290 ft / 1,308 m 110.24° 116.81° Asphalt 0 ft / 0 m 0 ft / 0 m
22 150 ft / 46 m 2,917 ft / 889 m 213.51° 220.08° Grass 0 ft / 0 m 0 ft / 0 m
29 75 ft / 23 m 4,290 ft / 1,308 m 290.26° 296.83° Asphalt 0 ft / 0 m 0 ft / 0 m

Map

Weather


0- 5 10 15 20 25 30 35+ Temperature / ° C

Clouds and Precipitation
Forecast for 2017-12-13 00:00 UTC. Updated an hour ago

Ground ~20,000 ft ~40,000 ft Winds

METAR

KERY 122015Z AUTO 34005KT 5SM -SN SCT007 BKN013 BKN018 M13/M14 A2988 RMK AO2 T11261144

TAF

Not found

Frequencies

Unicom 122.80 MHz CTAF/UNICOM
Warning: Do not use this data for real-world aviation or navigation. No guarantee of current accuracy is given.